Time;durP1;ratioP1;P1;durP2;ratioP2;P2;SDS_P1;SDS_P2;PMS_P1;PMS_P2;Temp;Humidity;BMP_temperature;BMP_pressure;BME280_temperature;BME280_humidity;BME280_pressure;Samples;Min_cycle;Max_cycle;Signal;HPM_P1;HPM_P2
2022/08/26 00:00:17;;;;;;;22.58;8.93;;;;;;;21.14;100.00;101051.25;2063622;28;20042;-68
2022/08/26 00:01:20;;;;;;;16.73;8.45;;;;;;;21.13;100.00;101047.72;2063695;28;20044;-68
2022/08/26 00:02:24;;;;;;;29.23;10.65;;;;;;;21.13;100.00;101052.41;2063608;28;20123;-67
2022/08/26 00:03:29;;;;;;;25.55;11.55;;;;;;;21.13;100.00;101044.19;2059646;28;20046;-67
2022/08/26 00:04:34;;;;;;;21.38;9.55;;;;;;;21.14;100.00;101048.53;2069384;28;20045;-67
2022/08/26 00:05:37;;;;;;;19.15;7.78;;;;;;;21.14;100.00;101049.31;2070231;28;20049;-67
2022/08/26 00:06:41;;;;;;;21.23;7.70;;;;;;;21.14;100.00;101048.53;2078632;28;20045;-67
2022/08/26 00:07:43;;;;;;;23.20;8.52;;;;;;;21.13;100.00;101042.25;2071327;28;20045;-66
2022/08/26 00:08:45;;;;;;;18.35;7.07;;;;;;;21.12;100.00;101040.63;2063696;28;20041;-66
2022/08/26 00:09:49;;;;;;;16.08;7.28;;;;;;;21.12;100.00;101037.13;2070479;28;20113;-67
2022/08/26 00:10:53;;;;;;;17.25;8.20;;;;;;;21.11;100.00;101041.78;2070887;28;20482;-67
2022/08/26 00:11:55;;;;;;;16.25;7.28;;;;;;;21.09;100.00;101040.53;2070915;28;20485;-66
2022/08/26 00:13:03;;;;;;;23.73;8.23;;;;;;;21.11;100.00;101038.25;2070429;28;20056;-67
2022/08/26 00:14:08;;;;;;;21.73;8.25;;;;;;;21.10;100.00;101042.94;2071181;28;20528;-67
2022/08/26 00:15:15;;;;;;;22.58;8.48;;;;;;;21.09;100.00;101037.78;2070777;28;20518;-67
2022/08/26 00:16:19;;;;;;;22.20;8.68;;;;;;;21.07;100.00;101035.41;2071158;28;20046;-67
2022/08/26 00:17:22;;;;;;;15.77;6.90;;;;;;;21.08;100.00;101033.47;2054285;28;20387;-68
2022/08/26 00:18:26;;;;;;;17.63;8.00;;;;;;;21.10;100.00;101039.41;2055034;28;20068;-67
2022/08/26 00:19:31;;;;;;;18.33;7.68;;;;;;;21.11;100.00;101038.25;2062222;28;20058;-68
2022/08/26 00:20:34;;;;;;;14.85;6.90;;;;;;;21.12;100.00;101039.84;2071317;28;20042;-67
2022/08/26 00:21:38;;;;;;;18.73;7.43;;;;;;;21.12;100.00;101031.63;2070174;28;20402;-68
2022/08/26 00:22:43;;;;;;;17.20;8.20;;;;;;;21.12;100.00;101035.16;2059761;28;20034;-68
2022/08/26 00:23:45;;;;;;;24.08;8.40;;;;;;;21.13;100.00;101030.53;2070285;28;20061;-68
2022/08/26 00:24:50;;;;;;;20.45;8.57;;;;;;;21.13;100.00;101030.53;2077774;28;20053;-68
2022/08/26 00:25:53;;;;;;;19.83;7.35;;;;;;;21.13;100.00;101034.06;2070177;28;20033;-68
2022/08/26 00:26:57;;;;;;;23.70;11.95;;;;;;;21.13;100.00;101041.47;2063777;28;20106;-69
2022/08/26 00:28:06;;;;;;;27.02;10.57;;;;;;;21.14;100.00;101032.13;2070457;28;20034;-69
2022/08/26 00:29:11;;;;;;;19.40;9.35;;;;;;;21.12;100.00;101028.91;2063395;28;20043;-68
2022/08/26 00:30:33;;;;;;;22.60;8.45;;;;;;;21.12;100.00;101034.38;2063169;28;20521;-68
2022/08/26 00:31:35;;;;;;;36.33;14.98;;;;;;;21.12;100.00;101034.38;2082542;28;20500;-68
2022/08/26 00:32:37;;;;;;;31.08;12.02;;;;;;;21.11;100.00;101033.59;2087790;28;20037;-68
2022/08/26 00:33:45;;;;;;;20.60;9.18;;;;;;;21.11;100.00;101032.78;2077253;28;20049;-68
2022/08/26 00:34:47;;;;;;;16.75;8.10;;;;;;;21.11;100.00;101035.53;2072623;28;20038;-69
2022/08/26 00:35:53;;;;;;;22.67;8.93;;;;;;;21.12;100.00;101034.38;2071381;28;20045;-71
2022/08/26 00:36:55;;;;;;;23.05;8.15;;;;;;;21.10;100.00;101033.94;2082360;28;20041;-68
2022/08/26 00:37:57;;;;;;;25.65;8.32;;;;;;;21.11;100.00;101032.78;2095599;28;20046;-68
2022/08/26 00:39:08;;;;;;;29.95;9.38;;;;;;;21.12;100.00;101031.63;2080366;28;20034;-69
2022/08/26 00:40:16;;;;;;;23.58;8.35;;;;;;;21.10;100.00;101034.72;2079550;28;20048;-67
2022/08/26 00:41:19;;;;;;;30.02;9.30;;;;;;;21.09;100.00;101029.59;2072114;28;20049;-67
2022/08/26 00:42:24;;;;;;;19.95;7.82;;;;;;;21.08;100.00;101028.78;2072004;28;20056;-68
2022/08/26 00:43:32;;;;;;;25.92;8.00;;;;;;;21.09;100.00;101035.06;2071832;28;20057;-68
2022/08/26 00:44:34;;;;;;;19.52;8.45;;;;;;;21.10;100.00;101033.94;2071250;28;20045;-69
2022/08/26 00:45:53;;;;;;;23.75;8.50;;;;;;;21.09;100.00;101032.31;2063545;28;20054;-69
2022/08/26 00:47:02;;;;;;;21.60;8.52;;;;;;;21.04;100.00;101027.88;2071088;28;20050;-68
2022/08/26 00:48:06;;;;;;;20.55;8.18;;;;;;;21.04;100.00;101028.66;2065642;28;20060;-68
2022/08/26 00:49:14;;;;;;;21.83;8.13;;;;;;;21.05;100.00;101034.94;2079568;28;20045;-68
2022/08/26 00:50:43;;;;;;;19.60;8.07;;;;;;;21.05;100.00;101035.72;2087973;28;20032;-68
2022/08/26 00:51:52;;;;;;;22.63;8.48;;;;;;;21.04;100.00;101036.88;2078271;28;20041;-68
2022/08/26 00:52:55;;;;;;;21.47;7.83;;;;;;;21.02;100.00;101028.19;2073652;28;20038;-68
2022/08/26 00:54:04;;;;;;;23.85;8.25;;;;;;;21.02;100.00;101030.94;2073187;28;20319;-68
2022/08/26 00:55:17;;;;;;;18.90;8.23;;;;;;;21.01;100.00;101034.81;2067411;28;20430;-68
2022/08/26 00:56:32;;;;;;;21.27;8.07;;;;;;;21.02;100.00;101025.47;2072795;28;20056;-68
2022/08/26 00:57:36;;;;;;;17.98;7.97;;;;;;;21.02;100.00;101027.41;2064836;28;20049;-69
2022/08/26 00:58:44;;;;;;;21.65;8.25;;;;;;;21.02;100.00;101030.94;2065495;28;20050;-69
2022/08/26 00:59:53;;;;;;;16.73;7.53;;;;;;;21.02;100.00;101030.94;2065041;28;20532;-69
2022/08/26 01:00:55;;;;;;;16.77;7.47;;;;;;;21.01;100.00;101026.59;2076823;28;20049;-69
2022/08/26 01:01:59;;;;;;;20.05;7.40;;;;;;;21.02;100.00;101027.41;2081159;28;20567;-69
2022/08/26 01:03:07;;;;;;;20.98;7.38;;;;;;;21.02;100.00;101025.47;2081096;28;20038;-68
2022/08/26 01:04:12;;;;;;;19.95;7.75;;;;;;;21.04;100.00;101030.59;2070668;28;20441;-68
2022/08/26 01:05:19;;;;;;;15.82;7.05;;;;;;;21.04;100.00;101028.66;2079666;28;20044;-69
2022/08/26 01:06:22;;;;;;;15.65;7.22;;;;;;;21.05;100.00;101024.78;2089442;28;20044;-68
2022/08/26 01:07:31;;;;;;;25.35;7.78;;;;;;;21.05;100.00;101022.06;2080710;28;20033;-69
2022/08/26 01:08:34;;;;;;;23.23;7.63;;;;;;;21.05;100.00;101024.78;2073183;28;20052;-68
2022/08/26 01:09:37;;;;;;;20.77;7.50;;;;;;;21.04;100.00;101025.94;2081112;28;20164;-69
2022/08/26 01:10:42;;;;;;;12.13;6.75;;;;;;;21.04;100.00;101022.41;2064933;28;20034;-69
2022/08/26 01:11:45;;;;;;;20.17;7.43;;;;;;;21.02;100.00;101025.47;2065563;28;20049;-69
2022/08/26 01:12:59;;;;;;;19.27;7.93;;;;;;;21.03;100.00;101027.09;2073674;28;20037;-68
2022/08/26 01:14:05;;;;;;;18.80;7.28;;;;;;;21.04;100.00;101025.16;2073579;28;20481;-68
2022/08/26 01:15:17;;;;;;;22.58;8.32;;;;;;;21.03;100.00;101023.56;2072190;28;20049;-68
2022/08/26 01:16:23;;;;;;;22.75;7.53;;;;;;;21.04;100.00;101022.41;2064618;28;20046;-67
2022/08/26 01:17:29;;;;;;;19.70;7.70;;;;;;;21.02;100.00;101028.19;2058171;28;20051;-67
2022/08/26 01:18:30;;;;;;;21.00;7.72;;;;;;;21.03;100.00;101027.09;2073486;28;20064;-68
2022/08/26 01:19:47;;;;;;;16.40;7.55;;;;;;;21.03;100.00;101029.03;2072927;28;20061;-69
2022/08/26 01:21:06;;;;;;;22.88;7.35;;;;;;;21.03;100.00;101024.34;2080648;28;20449;-69
2022/08/26 01:22:39;;;;;;;14.00;6.78;;;;;;;21.03;100.00;101021.63;2082995;28;20119;-69
2022/08/26 01:23:48;;;;;;;25.50;7.47;;;;;;;21.03;100.00;101027.09;2085303;28;20048;-69
2022/08/26 01:24:50;;;;;;;16.42;7.38;;;;;;;21.05;100.00;101018.53;2089329;28;20045;-69
2022/08/26 01:25:59;;;;;;;21.85;6.72;;;;;;;21.05;100.00;101016.59;2086734;28;20396;-70
2022/08/26 01:27:06;;;;;;;20.05;7.13;;;;;;;21.04;100.00;101022.41;2072784;28;20049;-69
2022/08/26 01:28:17;;;;;;;15.98;7.00;;;;;;;21.05;100.00;101021.25;2066622;28;20038;-70
2022/08/26 01:29:23;;;;;;;14.32;6.60;;;;;;;21.03;100.00;101013.41;2073855;28;20046;-69
2022/08/26 01:30:27;;;;;;;17.55;6.70;;;;;;;21.04;100.00;101019.69;2059481;28;20050;-69
2022/08/26 01:31:36;;;;;;;12.75;6.43;;;;;;;21.03;100.00;101020.81;2065286;28;20050;-69
2022/08/26 01:32:42;;;;;;;16.23;7.35;;;;;;;21.02;100.00;101020.00;2073018;28;20062;-69
2022/08/26 01:34:12;;;;;;;17.88;6.70;;;;;;;21.03;100.00;101016.16;2089102;28;20047;-69
2022/08/26 01:35:14;;;;;;;22.45;6.90;;;;;;;21.03;100.00;101016.16;2077333;28;20042;-69
2022/08/26 01:36:22;;;;;;;21.38;8.55;;;;;;;21.04;100.00;101016.94;2048670;28;20050;-69
2022/08/26 01:37:32;;;;;;;14.88;7.40;;;;;;;21.03;100.00;101016.16;2063926;28;20039;-68
2022/08/26 01:38:40;;;;;;;16.35;7.30;;;;;;;21.03;100.00;101015.34;2080646;28;20053;-69
2022/08/26 01:39:47;;;;;;;20.75;7.32;;;;;;;21.02;100.00;101019.19;2080529;28;20551;-69
2022/08/26 01:40:55;;;;;;;20.58;7.97;;;;;;;21.02;100.00;101019.19;2080407;28;20116;-69
2022/08/26 01:41:58;;;;;;;20.50;8.02;;;;;;;21.00;100.00;101021.50;2073336;28;20037;-69
2022/08/26 01:43:06;;;;;;;17.60;7.35;;;;;;;20.99;100.00;101017.16;2080405;28;20940;-69
2022/08/26 01:44:12;;;;;;;19.23;8.40;;;;;;;20.99;100.00;101015.19;2090154;28;20483;-69
2022/08/26 01:45:21;;;;;;;21.23;7.38;;;;;;;21.00;100.00;101013.28;2088150;28;20033;-69
2022/08/26 01:46:25;;;;;;;15.07;7.40;;;;;;;21.01;100.00;101014.88;2080284;28;20042;-69
2022/08/26 01:47:29;;;;;;;17.90;7.22;;;;;;;21.02;100.00;101020.00;2064261;28;20514;-69
2022/08/26 01:48:33;;;;;;;16.10;7.68;;;;;;;21.01;100.00;101018.41;2073086;28;20046;-69
2022/08/26 01:49:37;;;;;;;19.75;7.72;;;;;;;21.02;100.00;101019.19;2071975;28;20057;-69
2022/08/26 01:50:42;;;;;;;17.10;7.18;;;;;;;21.01;100.00;101017.63;2073383;28;20037;-69
2022/08/26 01:51:49;;;;;;;25.27;7.18;;;;;;;21.01;100.00;101017.63;2086208;28;20048;-68
2022/08/26 01:52:59;;;;;;;19.20;6.95;;;;;;;21.01;100.00;101012.94;2080371;28;20041;-69
2022/08/26 01:54:06;;;;;;;18.73;7.10;;;;;;;21.02;100.00;101014.53;2064832;28;20046;-68
2022/08/26 01:55:11;;;;;;;18.48;7.05;;;;;;;21.03;100.00;101010.69;2065702;28;20478;-69
2022/08/26 01:56:14;;;;;;;20.45;7.05;;;;;;;21.04;100.00;101016.94;2072557;28;20065;-69
2022/08/26 01:57:19;;;;;;;22.48;8.60;;;;;;;21.03;100.00;101010.69;2072365;28;20030;-68
2022/08/26 01:58:25;;;;;;;20.20;7.82;;;;;;;21.04;100.00;101017.75;2073181;28;20386;-68
2022/08/26 01:59:29;;;;;;;17.40;7.82;;;;;;;21.05;100.00;101013.06;2081639;28;20052;-69
2022/08/26 02:00:32;;;;;;;21.17;7.50;;;;;;;21.07;100.00;101008.06;2088457;28;20086;-69
2022/08/26 02:01:38;;;;;;;18.73;7.35;;;;;;;21.08;100.00;101012.38;2080263;28;20053;-68
2022/08/26 02:02:44;;;;;;;20.45;7.43;;;;;;;21.08;100.00;101012.38;2081369;28;20148;-68
2022/08/26 02:04:08;;;;;;;24.67;7.80;;;;;;;21.09;100.00;101010.44;2080432;28;20041;-68
2022/08/26 02:05:14;;;;;;;20.65;7.30;;;;;;;21.09;100.00;101008.53;2072417;28;20049;-67
2022/08/26 02:06:20;;;;;;;;;;;;;;;21.10;100.00;101006.59;2078885;28;20033;-67
2022/08/26 02:07:24;;;;;;;19.25;7.55;;;;;;;21.10;100.00;101006.59;2096004;28;20395;-67
2022/08/26 02:08:37;;;;;;;22.55;8.27;;;;;;;21.09;100.00;101005.81;2078894;28;20056;-68
2022/08/26 02:09:40;;;;;;;18.27;7.60;;;;;;;21.09;100.00;101000.34;2083986;28;20041;-68
2022/08/26 02:10:43;;;;;;;14.82;8.60;;;;;;;21.09;100.00;100997.59;2088420;28;20025;-68
2022/08/26 02:11:45;;;;;;;26.95;8.60;;;;;;;21.09;100.00;101004.97;2080322;28;20057;-69
2022/08/26 02:12:50;;;;;;;22.85;9.05;;;;;;;21.09;100.00;100991.31;2088431;28;20036;-68
2022/08/26 02:14:08;;;;;;;34.35;8.32;;;;;;;21.06;100.00;100999.06;2071983;28;20085;-68
2022/08/26 02:15:15;;;;;;;19.42;8.27;;;;;;;21.08;100.00;100995.19;2063633;28;20054;-67
2022/08/26 02:16:21;;;;;;;;;;;;;;;21.06;100.00;100996.34;2072687;28;20922;-68
2022/08/26 02:17:28;;;;;;;17.17;8.50;;;;;;;21.06;100.00;101001.81;2072461;28;19924;-68
2022/08/26 02:18:35;;;;;;;24.05;8.50;;;;;;;21.08;100.00;100995.19;2072183;28;20052;-68
2022/08/26 02:19:44;;;;;;;24.08;8.35;;;;;;;21.06;100.00;100993.59;2064732;28;20065;-68
2022/08/26 02:20:47;;;;;;;31.17;9.00;;;;;;;21.05;100.00;100991.97;2073197;28;20050;-68
2022/08/26 02:21:50;;;;;;;25.55;7.88;;;;;;;21.06;100.00;100990.06;2072539;28;20053;-68
2022/08/26 02:22:52;;;;;;;27.60;8.77;;;;;;;21.05;100.00;100994.72;2064027;28;20038;-68
2022/08/26 02:23:55;;;;;;;27.52;7.90;;;;;;;21.04;100.00;100993.13;2064445;28;20042;-69
2022/08/26 02:25:19;;;;;;;37.13;8.63;;;;;;;21.05;100.00;100994.72;2065019;28;20034;-68
2022/08/26 02:26:22;;;;;;;30.38;9.43;;;;;;;21.04;100.00;100990.41;2067156;28;20045;-68
2022/08/26 02:27:32;;;;;;;25.33;8.88;;;;;;;21.05;100.00;100983.00;2072389;28;20054;-69
2022/08/26 02:28:48;;;;;;;22.98;8.18;;;;;;;21.06;100.00;100990.88;2078951;28;20041;-69
2022/08/26 02:30:19;;;;;;;31.83;8.90;;;;;;;21.06;100.00;100988.13;2084860;28;20509;-69
2022/08/26 02:31:22;;;;;;;31.05;9.35;;;;;;;21.06;100.00;100988.13;2083538;28;20049;-67
2022/08/26 02:32:25;;;;;;;31.27;8.77;;;;;;;21.06;100.00;100987.34;2072018;28;20049;-69
2022/08/26 02:33:28;;;;;;;24.00;8.60;;;;;;;21.06;100.00;100987.34;2064097;28;20050;-69
2022/08/26 02:34:33;;;;;;;23.77;9.15;;;;;;;21.06;100.00;100982.66;2080155;28;20461;-69
2022/08/26 02:35:42;;;;;;;24.73;8.90;;;;;;;21.08;100.00;100981.50;2080343;28;20540;-69
2022/08/26 02:36:44;;;;;;;34.90;9.82;;;;;;;21.06;100.00;100982.66;2089592;28;20039;-68
2022/08/26 02:37:52;;;;;;;27.63;9.05;;;;;;;21.08;100.00;100978.78;2087326;28;20048;-68
2022/08/26 02:38:59;;;;;;;25.95;8.57;;;;;;;21.09;100.00;100986.66;2072804;28;20045;-70
2022/08/26 02:40:04;;;;;;;22.27;8.50;;;;;;;21.11;100.00;100986.31;2072392;28;20045;-69
2022/08/26 02:41:07;;;;;;;25.20;8.70;;;;;;;21.12;100.00;100985.16;2080677;28;20048;-69
2022/08/26 02:42:14;;;;;;;27.15;8.90;;;;;;;21.13;100.00;100987.56;2088029;28;20040;-68
2022/08/26 02:43:16;;;;;;;25.23;8.68;;;;;;;21.14;100.00;100989.16;2088880;28;20060;-69
2022/08/26 02:44:21;;;;;;;24.05;8.55;;;;;;;21.15;100.00;100984.47;2095937;28;20040;-68
2022/08/26 02:45:22;;;;;;;30.00;8.77;;;;;;;21.16;100.00;100989.63;2080337;28;20033;-69
2022/08/26 02:46:25;;;;;;;24.30;9.10;;;;;;;21.15;100.00;100995.41;2080226;28;20053;-69
2022/08/26 02:47:32;;;;;;;34.65;9.18;;;;;;;21.15;100.00;100989.94;2080232;28;20370;-68
2022/08/26 02:48:35;;;;;;;31.23;9.07;;;;;;;21.17;100.00;100990.41;2080317;28;20052;-68
2022/08/26 02:49:43;;;;;;;32.50;9.63;;;;;;;21.17;100.00;100991.22;2080876;28;20060;-68
2022/08/26 02:50:48;;;;;;;30.13;9.30;;;;;;;21.16;100.00;100984.16;2080205;28;20048;-68
2022/08/26 02:51:53;;;;;;;24.08;10.00;;;;;;;21.17;100.00;100995.88;2079338;28;20034;-69
2022/08/26 02:52:59;;;;;;;31.27;9.18;;;;;;;21.16;100.00;100989.63;2072658;28;20045;-68
2022/08/26 02:54:03;;;;;;;28.45;9.68;;;;;;;21.15;100.00;100988.00;2080199;28;20026;-68
2022/08/26 02:55:06;;;;;;;24.35;9.75;;;;;;;21.16;100.00;100983.38;2081083;28;20033;-69
2022/08/26 02:56:08;;;;;;;38.55;10.48;;;;;;;21.15;100.00;100985.28;2080193;28;20030;-68
2022/08/26 02:57:15;;;;;;;31.38;9.70;;;;;;;21.14;100.00;100982.91;2079714;28;20054;-68
2022/08/26 02:58:19;;;;;;;38.13;9.85;;;;;;;21.13;100.00;100986.78;2072567;28;20050;-69
2022/08/26 02:59:21;;;;;;;36.97;9.88;;;;;;;21.14;100.00;100982.91;2080342;28;20048;-68
2022/08/26 03:00:26;;;;;;;33.42;9.80;;;;;;;21.13;100.00;100981.31;2088251;28;20065;-67
2022/08/26 03:01:34;;;;;;;30.08;9.45;;;;;;;21.13;100.00;100982.09;2088040;28;20064;-67
2022/08/26 03:02:39;;;;;;;35.28;9.13;;;;;;;21.13;100.00;100981.31;2078718;28;20048;-68
2022/08/26 03:03:41;;;;;;;26.92;9.13;;;;;;;21.14;100.00;100985.63;2065876;28;20590;-68
2022/08/26 03:04:49;;;;;;;36.17;9.68;;;;;;;21.13;100.00;100975.84;2072658;28;20030;-67
2022/08/26 03:05:55;;;;;;;29.15;9.57;;;;;;;21.12;100.00;100975.03;2088262;28;20395;-68
2022/08/26 03:07:03;;;;;;;40.83;9.93;;;;;;;21.11;100.00;100978.09;2079085;28;20041;-68
2022/08/26 03:08:10;;;;;;;47.78;9.85;;;;;;;21.09;100.00;100980.38;2064221;28;20042;-68
2022/08/26 03:09:20;;;;;;;37.88;9.55;;;;;;;21.07;100.00;100978.00;2081310;28;20049;-68
2022/08/26 03:10:24;;;;;;;38.67;9.55;;;;;;;21.06;100.00;100977.19;2086543;28;20053;-68
2022/08/26 03:11:34;;;;;;;37.65;9.85;;;;;;;21.08;100.00;100978.78;2063572;28;20051;-68
2022/08/26 03:12:36;;;;;;;66.10;11.13;;;;;;;21.08;100.00;100968.63;2065930;28;20034;-68
2022/08/26 03:13:43;;;;;;;37.20;9.40;;;;;;;21.08;100.00;100970.59;2071508;28;20056;-68
2022/08/26 03:14:48;;;;;;;26.98;8.80;;;;;;;21.08;100.00;100978.78;2072743;28;20038;-67
2022/08/26 03:15:50;;;;;;;29.65;9.98;;;;;;;21.08;100.00;100968.63;2079459;28;20029;-68
2022/08/26 03:16:53;;;;;;;24.77;8.75;;;;;;;21.10;100.00;100971.06;2071753;28;20046;-68
2022/08/26 03:18:01;;;;;;;31.63;10.02;;;;;;;21.10;100.00;100960.13;2071895;28;20038;-68
2022/08/26 03:19:07;;;;;;;27.95;9.55;;;;;;;21.10;100.00;100968.31;2072258;28;20049;-67
2022/08/26 03:20:12;;;;;;;40.83;9.90;;;;;;;21.09;100.00;100962.06;2072632;28;20466;-68
2022/08/26 03:21:16;;;;;;;29.08;9.15;;;;;;;21.09;100.00;100961.22;2072487;28;20029;-68
2022/08/26 03:22:19;;;;;;;33.58;10.25;;;;;;;21.09;100.00;100963.97;2076121;28;20041;-68
2022/08/26 03:23:21;;;;;;;25.02;9.00;;;;;;;21.08;100.00;100963.19;2071803;28;20033;-68
2022/08/26 03:24:26;;;;;;;26.13;9.98;;;;;;;21.09;100.00;100958.50;2071695;28;20057;-67
2022/08/26 03:25:28;;;;;;;25.55;8.85;;;;;;;21.08;100.00;100968.63;2072141;28;20505;-68
2022/08/26 03:26:29;;;;;;;39.08;9.00;;;;;;;21.06;100.00;100965.47;2063154;28;20051;-68
2022/08/26 03:27:34;;;;;;;24.42;9.27;;;;;;;21.05;100.00;100967.38;2063955;28;20058;-69
2022/08/26 03:30:38;;;;;;;35.72;9.68;;;;;;;21.05;100.00;100958.38;2079902;28;20041;-68
2022/08/26 03:31:26;;;;;;;36.90;9.27;;;;;;;21.08;100.00;100963.19;2071701;28;20485;-67
2022/08/26 03:32:28;;;;;;;22.35;8.75;;;;;;;21.09;100.00;100964.78;2063965;28;20053;-67
2022/08/26 03:33:30;;;;;;;23.23;10.20;;;;;;;21.09;100.00;100964.78;2079752;28;20042;-68
2022/08/26 03:34:32;;;;;;;27.88;9.27;;;;;;;21.10;100.00;100962.84;2080071;28;20524;-68
2022/08/26 03:35:39;;;;;;;18.15;8.73;;;;;;;21.06;100.00;100966.25;2071643;28;20062;-68
2022/08/26 03:36:45;;;;;;;30.50;9.75;;;;;;;21.07;100.00;100961.59;2072821;28;20042;-68
2022/08/26 03:37:47;;;;;;;28.65;9.55;;;;;;;21.09;100.00;100963.97;2080337;28;20997;-68
2022/08/26 03:38:50;;;;;;;31.10;9.13;;;;;;;21.08;100.00;100965.13;2087056;28;20052;-71
2022/08/26 03:39:51;;;;;;;21.40;9.45;;;;;;;21.08;100.00;100956.91;2079744;28;20037;-71
2022/08/26 03:40:54;;;;;;;24.42;9.07;;;;;;;21.09;100.00;100961.22;2079731;28;20041;-71
2022/08/26 03:41:58;;;;;;;24.75;9.07;;;;;;;21.07;100.00;100961.59;2088655;28;20051;-71
2022/08/26 03:43:02;;;;;;;17.13;8.80;;;;;;;21.07;100.00;100961.59;2079752;28;20167;-71
2022/08/26 03:44:12;;;;;;;29.65;9.60;;;;;;;21.06;100.00;100952.59;2072786;28;20042;-68
2022/08/26 03:45:17;;;;;;;28.15;10.30;;;;;;;21.09;100.00;100955.75;2080025;28;20033;-67
2022/08/26 03:46:21;;;;;;;24.27;9.45;;;;;;;21.09;100.00;100953.84;2079240;28;20062;-68
2022/08/26 03:47:30;;;;;;;17.08;8.73;;;;;;;21.11;100.00;100958.97;2079373;28;20053;-68
2022/08/26 03:48:34;;;;;;;22.63;8.93;;;;;;;21.12;100.00;100963.28;2079773;28;20059;-68
2022/08/26 03:49:36;;;;;;;18.63;9.07;;;;;;;21.13;100.00;100964.91;2063300;28;20034;-68
2022/08/26 03:50:40;;;;;;;24.48;9.82;;;;;;;21.12;100.00;100961.34;2063694;28;20045;-68
2022/08/26 03:51:43;;;;;;;44.35;9.93;;;;;;;21.10;100.00;100963.63;2080471;28;20749;-67
2022/08/26 03:52:51;;;;;;;20.92;9.55;;;;;;;21.10;100.00;100960.91;2084331;28;20049;-68
2022/08/26 03:53:55;;;;;;;21.13;9.13;;;;;;;21.11;100.00;100957.03;2085258;28;20036;-69
2022/08/26 03:54:57;;;;;;;22.85;9.10;;;;;;;21.12;100.00;100966.81;2079732;28;20034;-69
2022/08/26 03:56:04;;;;;;;27.42;9.55;;;;;;;21.11;100.00;100967.16;2079937;28;20611;-69
2022/08/26 03:57:11;;;;;;;23.27;9.68;;;;;;;21.07;100.00;100961.59;2071295;28;20488;-69
2022/08/26 03:58:13;;;;;;;24.65;8.95;;;;;;;21.07;100.00;100967.06;2064825;28;20046;-69
2022/08/26 03:59:18;;;;;;;30.48;10.10;;;;;;;21.08;100.00;100967.84;2079812;28;20048;-69
2022/08/26 04:00:25;;;;;;;22.35;9.48;;;;;;;21.09;100.00;100963.97;2079734;28;20037;-69
2022/08/26 04:01:28;;;;;;;16.92;8.90;;;;;;;21.09;100.00;100963.97;2072417;28;20118;-69
2022/08/26 04:02:33;;;;;;;33.05;9.73;;;;;;;21.09;100.00;100972.16;2079611;28;20057;-69
2022/08/26 04:04:56;;;;;;;21.48;8.50;;;;;;;21.11;100.00;100967.16;2072010;28;20041;-69
2022/08/26 04:06:01;;;;;;;25.08;8.82;;;;;;;21.11;100.00;100962.50;2074770;28;20030;-69
2022/08/26 04:07:06;;;;;;;20.35;9.25;;;;;;;21.12;100.00;100964.09;2079547;28;20485;-69
2022/08/26 04:08:11;;;;;;;25.08;9.02;;;;;;;21.13;100.00;100967.63;2080102;28;20029;-69
2022/08/26 04:09:18;;;;;;;22.38;8.85;;;;;;;21.12;100.00;100957.81;2079765;28;20045;-68
2022/08/26 04:10:23;;;;;;;27.23;8.52;;;;;;;21.12;100.00;100964.09;2071939;28;20044;-68
2022/08/26 04:11:32;;;;;;;22.13;8.88;;;;;;;21.13;100.00;100959.44;2079747;28;20090;-69
2022/08/26 04:12:40;;;;;;;23.45;8.68;;;;;;;21.14;100.00;100956.34;2079387;28;20516;-69
2022/08/26 04:13:45;;;;;;;23.90;9.45;;;;;;;21.14;100.00;100966.50;2072417;28;20548;-69
2022/08/26 04:14:48;;;;;;;21.38;8.52;;;;;;;21.14;100.00;100956.34;2072014;28;20120;-69
2022/08/26 04:15:54;;;;;;;18.05;8.38;;;;;;;21.15;100.00;100962.59;2080078;28;20402;-68
2022/08/26 04:17:03;;;;;;;23.90;8.52;;;;;;;21.16;100.00;100964.22;2086722;28;20039;-67
2022/08/26 04:18:08;;;;;;;20.38;8.48;;;;;;;21.17;100.00;100960.34;2080134;28;20037;-68
2022/08/26 04:19:16;;;;;;;21.67;9.77;;;;;;;21.17;100.00;100954.88;2087710;28;20389;-68
2022/08/26 04:20:23;;;;;;;20.20;8.73;;;;;;;21.16;100.00;100964.22;2079609;28;20032;-69
2022/08/26 04:21:28;;;;;;;22.58;8.23;;;;;;;21.14;100.00;100956.34;2079737;28;20040;-68
2022/08/26 04:22:33;;;;;;;20.02;8.23;;;;;;;21.14;100.00;100955.56;2076730;28;20045;-68
2022/08/26 04:23:35;;;;;;;25.05;8.27;;;;;;;21.16;100.00;100964.22;2071800;28;20034;-71
2022/08/26 04:24:41;;;;;;;23.85;8.48;;;;;;;21.17;100.00;100963.88;2079563;28;21279;-71
2022/08/26 04:25:43;;;;;;;21.13;8.00;;;;;;;21.17;100.00;100960.34;2079580;28;20535;-72
2022/08/26 04:26:45;;;;;;;20.60;8.57;;;;;;;21.18;100.00;100961.94;2079198;28;20041;-70
2022/08/26 04:27:49;;;;;;;26.15;8.77;;;;;;;21.21;100.00;100953.03;2079150;28;20041;-71
2022/08/26 04:28:54;;;;;;;23.05;7.95;;;;;;;21.22;100.00;100957.41;2080530;28;20033;-70
2022/08/26 04:29:57;;;;;;;21.27;8.25;;;;;;;21.21;100.00;100967.50;2071093;28;20124;-71
2022/08/26 04:30:58;;;;;;;18.58;7.97;;;;;;;21.20;100.00;100968.66;2063681;28;20528;-70
2022/08/26 04:32:10;;;;;;;22.63;8.93;;;;;;;21.20;100.00;100976.88;2079537;28;20064;-72
2022/08/26 04:33:17;;;;;;;30.85;8.80;;;;;;;21.20;100.00;100971.41;2080254;28;20048;-69
2022/08/26 04:34:25;;;;;;;25.08;8.25;;;;;;;21.23;100.00;100970.72;2079365;28;20064;-70
2022/08/26 04:35:35;;;;;;;21.83;8.68;;;;;;;21.26;100.00;100963.78;2073144;28;20042;-70
2022/08/26 04:36:37;;;;;;;25.10;8.27;;;;;;;21.28;100.00;100962.28;2080706;28;20497;-70
2022/08/26 04:37:46;;;;;;;23.90;8.57;;;;;;;21.29;100.00;100957.63;2078778;28;20559;-70
2022/08/26 04:38:49;;;;;;;20.55;8.15;;;;;;;21.33;100.00;100960.47;2063906;28;20519;-70
2022/08/26 04:39:52;;;;;;;22.42;8.27;;;;;;;21.33;100.00;100960.47;2063104;28;20054;-68
2022/08/26 04:40:54;;;;;;;21.67;8.68;;;;;;;21.34;100.00;100965.59;2063468;28;20045;-69
2022/08/26 04:41:59;;;;;;;24.30;9.15;;;;;;;21.35;100.00;100956.28;2062981;28;20050;-68
2022/08/26 04:43:04;;;;;;;21.33;8.43;;;;;;;21.41;100.00;100960.38;2055507;28;20042;-68
2022/08/26 04:44:11;;;;;;;23.83;9.57;;;;;;;21.46;100.00;100962.09;2057034;28;20045;-69
2022/08/26 04:45:14;;;;;;;22.77;8.65;;;;;;;21.50;100.00;100952.88;2071277;28;20497;-69
2022/08/26 04:46:20;;;;;;;25.20;8.43;;;;;;;21.58;100.00;100958.56;2072721;28;20034;-68
2022/08/26 04:47:23;;;;;;;26.40;8.82;;;;;;;21.64;100.00;100957.19;2071468;28;20522;-69
2022/08/26 04:48:29;;;;;;;23.23;9.43;;;;;;;21.78;100.00;100962.28;2079381;28;20038;-71
2022/08/26 04:49:31;;;;;;;21.13;7.82;;;;;;;21.88;100.00;100959.88;2070962;28;20045;-71
2022/08/26 04:50:37;;;;;;;22.20;8.43;;;;;;;21.94;100.00;100964.00;2071079;28;20054;-71
2022/08/26 04:51:42;;;;;;;21.20;7.45;;;;;;;21.97;100.00;100955.09;2062033;28;20046;-71
2022/08/26 04:52:51;;;;;;;24.83;8.18;;;;;;;22.01;100.00;100957.13;2063666;28;20058;-69
2022/08/26 04:53:58;;;;;;;30.73;8.20;;;;;;;22.01;100.00;100954.41;2069956;28;20050;-69
2022/08/26 04:55:00;;;;;;;24.38;8.02;;;;;;;22.02;100.00;100962.25;2075433;28;20033;-69
2022/08/26 04:56:04;;;;;;;18.92;7.55;;;;;;;22.04;100.00;100965.44;2077602;28;20393;-69
2022/08/26 04:57:06;;;;;;;31.33;7.80;;;;;;;21.99;100.00;100963.72;2069673;28;20049;-68
2022/08/26 04:58:16;;;;;;;28.25;8.15;;;;;;;21.99;100.00;100966.47;2069569;28;20082;-69
2022/08/26 04:59:18;;;;;;;29.40;7.95;;;;;;;22.01;100.00;100959.88;2069482;28;20069;-68
2022/08/26 05:00:21;;;;;;;23.38;8.20;;;;;;;22.01;100.00;100963.41;2069776;28;20778;-67
2022/08/26 05:01:24;;;;;;;23.60;7.90;;;;;;;22.00;100.00;100964.53;2076639;28;20053;-68
2022/08/26 05:02:26;;;;;;;19.92;7.68;;;;;;;21.99;100.00;100969.22;2069705;28;20049;-68